createdAt,value
2022-08-12T00:00:19.812Z,2.85
2022-08-12T00:05:56.419Z,2.70
2022-08-12T00:11:21.201Z,2.92
2022-08-12T00:16:42.097Z,3.08
2022-08-12T00:22:02.961Z,3.03
2022-08-12T00:27:27.401Z,3.03
2022-08-12T00:33:04.439Z,2.90
2022-08-12T00:38:25.102Z,3.13
2022-08-12T00:43:28.594Z,3.00
2022-08-12T00:48:31.638Z,3.38
2022-08-12T00:53:34.471Z,3.28
2022-08-12T01:03:59.650Z,3.13
2022-08-12T01:09:25.562Z,2.88
2022-08-12T01:14:28.489Z,3.30
2022-08-12T01:19:32.827Z,2.95
2022-08-12T01:24:57.134Z,3.00
2022-08-12T01:30:01.559Z,3.22
2022-08-12T01:35:30.352Z,2.65
2022-08-12T01:40:37.924Z,2.85
2022-08-12T01:45:57.432Z,3.38
2022-08-12T01:52:19.999Z,3.42
2022-08-12T01:57:57.143Z,3.13
2022-08-12T02:02:47.866Z,3.22
2022-08-12T02:08:36.484Z,3.10
2022-08-12T02:13:57.364Z,3.22
2022-08-12T02:19:27.683Z,3.20
2022-08-12T02:24:32.965Z,3.40
2022-08-12T02:29:35.902Z,3.30
2022-08-12T02:34:37.849Z,3.45
2022-08-12T02:39:44.452Z,2.97
2022-08-12T02:44:50.908Z,3.25
2022-08-12T02:49:56.498Z,3.30
2022-08-12T02:55:08.369Z,2.80
2022-08-12T03:00:11.735Z,3.35
2022-08-12T03:05:17.915Z,3.03
2022-08-12T03:10:37.153Z,3.50
2022-08-12T03:15:40.341Z,3.00
2022-08-12T03:25:44.113Z,3.30
2022-08-12T03:30:54.769Z,3.40
2022-08-12T03:36:01.511Z,3.50
2022-08-12T03:41:33.522Z,2.90
2022-08-12T03:47:00.422Z,3.33
2022-08-12T03:52:21.834Z,3.78
2022-08-12T03:57:42.242Z,4.10
2022-08-12T04:02:57.232Z,3.80
2022-08-12T04:08:00.028Z,3.60
2022-08-12T04:13:19.805Z,3.20
2022-08-12T04:18:23.482Z,3.50
2022-08-12T04:23:25.919Z,3.85
2022-08-12T04:28:28.358Z,4.03
2022-08-12T04:33:32.244Z,3.92
2022-08-12T04:38:34.630Z,4.00
2022-08-12T04:44:01.591Z,4.68
2022-08-12T04:49:02.630Z,4.65
2022-08-12T04:54:04.989Z,3.75
2022-08-12T04:59:07.686Z,3.97
2022-08-12T05:04:10.660Z,3.92
2022-08-12T05:14:16.457Z,4.00
2022-08-12T05:19:22.786Z,3.45
2022-08-12T05:24:24.631Z,4.10
2022-08-12T05:30:06.860Z,3.92
2022-08-12T05:34:51.725Z,3.95
2022-08-12T05:39:53.562Z,4.15
2022-08-12T05:44:55.766Z,3.80
2022-08-12T05:49:59.065Z,3.85
2022-08-12T05:55:00.890Z,4.00
2022-08-12T06:00:05.189Z,3.63
2022-08-12T06:05:13.939Z,3.20
2022-08-12T06:10:17.595Z,2.90
2022-08-12T06:15:38.117Z,3.00
2022-08-12T06:20:41.351Z,3.05
2022-08-12T06:25:43.587Z,3.15
2022-08-12T06:30:53.121Z,2.70
2022-08-12T06:36:08.436Z,2.92
2022-08-12T06:41:29.986Z,2.60
2022-08-12T06:46:32.148Z,2.90
2022-08-12T06:51:34.165Z,2.80
2022-08-12T07:01:58.259Z,2.85
2022-08-12T07:07:00.299Z,2.73
2022-08-12T07:12:02.080Z,2.80
2022-08-12T07:17:03.827Z,2.97
2022-08-12T07:22:06.544Z,2.77
2022-08-12T07:32:09.905Z,2.40
2022-08-12T07:37:12.953Z,2.40
2022-08-12T07:42:14.618Z,2.25
2022-08-12T07:47:16.360Z,2.30
2022-08-12T07:52:18.627Z,2.23
2022-08-12T07:57:20.747Z,2.63
2022-08-12T08:02:30.696Z,2.20
2022-08-12T08:07:33.418Z,2.20
2022-08-12T08:12:53.424Z,2.00
2022-08-12T08:18:02.732Z,2.10
2022-08-12T08:23:13.582Z,2.30
2022-08-12T08:28:18.946Z,2.17
2022-08-12T08:33:23.493Z,2.33
2022-08-12T08:38:56.051Z,2.55
2022-08-12T08:44:01.460Z,2.50
2022-08-12T08:49:04.923Z,2.35
2022-08-12T08:54:08.729Z,2.30
2022-08-12T08:59:11.841Z,2.13
2022-08-12T09:05:07.917Z,2.28
2022-08-12T09:10:02.419Z,2.25
2022-08-12T09:14:59.783Z,2.13
2022-08-12T09:20:01.804Z,2.00
2022-08-12T09:25:07.151Z,2.30
2022-08-12T09:30:15.739Z,2.05
2022-08-12T09:35:28.251Z,2.08
2022-08-12T09:41:02.160Z,1.98
2022-08-12T09:46:11.208Z,1.85
2022-08-12T09:51:21.707Z,2.20
2022-08-12T09:56:58.791Z,1.85
2022-08-12T10:02:41.813Z,1.70
2022-08-12T10:07:23.076Z,1.83
2022-08-12T10:13:06.804Z,1.70
2022-08-12T10:18:08.016Z,1.70
2022-08-12T10:23:12.561Z,1.73
2022-08-12T10:28:33.073Z,1.92
2022-08-12T10:33:43.566Z,2.05
2022-08-12T10:38:56.679Z,1.40
2022-08-12T10:43:58.382Z,1.77
2022-08-12T10:49:06.617Z,1.20
2022-08-12T10:54:26.865Z,1.50
2022-08-12T11:00:31.944Z,1.23
2022-08-12T11:10:00.679Z,1.10
2022-08-12T11:15:18.540Z,1.45
2022-08-12T11:20:24.488Z,1.02
2022-08-12T11:25:56.697Z,1.30
2022-08-12T11:30:54.444Z,1.10
2022-08-12T11:41:05.668Z,0.80
2022-08-12T11:46:07.452Z,0.77
2022-08-12T11:51:11.558Z,0.88
2022-08-12T11:56:15.242Z,0.82
2022-08-12T12:01:58.895Z,1.05
2022-08-12T12:06:38.976Z,1.10
2022-08-12T12:11:48.970Z,0.90
2022-08-12T12:16:51.293Z,1.15
2022-08-12T12:21:53.121Z,0.90
2022-08-12T12:32:10.732Z,0.98
2022-08-12T12:37:16.376Z,0.98
2022-08-12T12:42:42.073Z,1.00
2022-08-12T12:47:56.861Z,1.05
2022-08-12T12:52:59.119Z,1.13
2022-08-12T12:58:11.144Z,1.08
2022-08-12T13:03:19.330Z,1.10
2022-08-12T13:08:35.919Z,1.27
2022-08-12T13:14:12.078Z,1.20
2022-08-12T13:18:59.584Z,1.20
2022-08-12T13:24:09.526Z,1.27
2022-08-12T13:29:12.920Z,0.98
2022-08-12T13:34:31.777Z,1.00
2022-08-12T13:39:36.008Z,0.95
2022-08-12T13:44:37.713Z,1.10
2022-08-12T13:49:53.963Z,0.80
2022-08-12T13:54:58.738Z,1.00
2022-08-12T14:00:01.678Z,0.93
2022-08-12T14:05:31.510Z,0.90
2022-08-12T14:10:52.010Z,0.95
2022-08-12T14:15:55.862Z,1.20
2022-08-12T14:21:04.162Z,1.20
2022-08-12T14:26:12.120Z,1.08
2022-08-12T14:31:18.219Z,1.05
2022-08-12T14:36:22.745Z,1.00
2022-08-12T14:41:37.244Z,1.00
2022-08-12T14:46:53.113Z,0.80
2022-08-12T14:52:43.369Z,0.80
2022-08-12T14:57:23.872Z,0.73
2022-08-12T15:02:29.561Z,0.93
2022-08-12T15:07:33.507Z,0.70
2022-08-12T15:12:46.177Z,0.70
2022-08-12T15:17:59.162Z,0.73
2022-08-12T15:23:02.876Z,0.90
2022-08-12T15:28:20.764Z,0.90
2022-08-12T15:33:25.232Z,0.90
2022-08-12T15:38:47.031Z,0.95
2022-08-12T15:44:15.670Z,0.70
2022-08-12T15:49:17.048Z,0.70
2022-08-12T15:54:35.041Z,0.77
2022-08-12T15:59:51.335Z,0.90
2022-08-12T16:05:00.202Z,0.90
2022-08-12T16:10:06.881Z,0.80
2022-08-12T16:15:11.529Z,1.00
2022-08-12T16:20:33.145Z,0.90
2022-08-12T16:26:03.218Z,0.90
2022-08-12T16:31:00.231Z,0.90
2022-08-12T16:36:08.098Z,1.10
2022-08-12T16:41:13.456Z,0.88
2022-08-12T16:46:31.588Z,0.90
2022-08-12T16:51:40.314Z,1.00
2022-08-12T16:56:55.212Z,0.90
2022-08-12T17:02:00.514Z,1.00
2022-08-12T17:07:02.887Z,0.90
2022-08-12T17:12:05.401Z,0.95
2022-08-12T17:22:30.369Z,1.00
2022-08-12T17:27:34.146Z,1.00
2022-08-12T17:32:39.632Z,1.10
2022-08-12T17:37:42.933Z,1.00
2022-08-12T17:42:47.666Z,1.13
2022-08-12T17:48:01.371Z,1.20
2022-08-12T17:53:12.456Z,1.10
2022-08-12T17:58:37.174Z,1.00
2022-08-12T18:04:05.732Z,1.20
2022-08-12T18:09:08.870Z,1.05
2022-08-12T18:14:11.363Z,1.05
2022-08-12T18:19:17.547Z,1.13
2022-08-12T18:24:22.175Z,1.00
2022-08-12T18:29:41.836Z,1.20
2022-08-12T18:34:45.257Z,1.10
2022-08-12T18:40:14.939Z,1.02
2022-08-12T18:45:21.342Z,1.08
2022-08-12T18:50:24.621Z,1.30
2022-08-12T18:55:26.996Z,1.23
2022-08-12T19:00:43.291Z,1.17
2022-08-12T19:05:54.084Z,1.10
2022-08-12T19:11:20.408Z,1.25
2022-08-12T19:16:22.926Z,1.20
2022-08-12T19:21:25.070Z,1.38
2022-08-12T19:26:28.062Z,1.30
2022-08-12T19:31:55.543Z,1.10
2022-08-12T19:37:04.250Z,1.23
2022-08-12T19:42:06.530Z,1.00
2022-08-12T19:47:11.886Z,1.20
2022-08-12T19:52:21.153Z,1.10
2022-08-12T19:57:24.047Z,1.20
2022-08-12T20:02:33.123Z,1.20
2022-08-12T20:07:42.843Z,1.10
2022-08-12T20:13:10.115Z,1.20
2022-08-12T20:18:18.969Z,1.45
2022-08-12T20:23:37.110Z,1.30
2022-08-12T20:28:52.880Z,1.58
2022-08-12T20:33:56.633Z,1.70
2022-08-12T20:39:00.965Z,1.70
2022-08-12T20:44:04.509Z,1.55
2022-08-12T20:49:18.835Z,1.80
2022-08-12T20:54:22.175Z,1.80
2022-08-12T20:59:26.413Z,1.48
2022-08-12T21:04:52.172Z,1.30
2022-08-12T21:09:53.909Z,1.92
2022-08-12T21:15:16.671Z,1.55
2022-08-12T21:20:23.323Z,1.88
2022-08-12T21:31:11.483Z,1.45
2022-08-12T21:36:09.168Z,1.70
2022-08-12T21:41:24.698Z,1.80
2022-08-12T21:46:35.017Z,1.60
2022-08-12T21:51:49.256Z,1.52
2022-08-12T21:56:53.744Z,1.77
2022-08-12T22:01:55.585Z,1.80
2022-08-12T22:06:59.216Z,1.77
2022-08-12T22:12:21.216Z,1.65
2022-08-12T22:17:33.912Z,1.70
2022-08-12T22:22:56.092Z,1.60
2022-08-12T22:28:17.131Z,1.60
2022-08-12T22:33:26.416Z,1.80
2022-08-12T22:38:29.745Z,1.97
2022-08-12T22:43:59.929Z,1.63
2022-08-12T22:49:06.368Z,1.90
2022-08-12T22:54:28.082Z,1.77
2022-08-12T22:59:51.066Z,1.90
2022-08-12T23:04:52.321Z,1.80
2022-08-12T23:09:56.954Z,1.90
2022-08-12T23:14:58.651Z,1.83
2022-08-12T23:20:01.655Z,1.90
2022-08-12T23:25:03.741Z,1.90
2022-08-12T23:30:18.879Z,2.00
2022-08-12T23:35:45.929Z,1.83
2022-08-12T23:40:54.574Z,1.98
2022-08-12T23:46:00.909Z,1.90
2022-08-12T23:51:21.715Z,1.80
2022-08-12T23:56:25.735Z,1.80
